Weather History for Angel Fire, NM

Change the Weather History Date:

Monday, November 18, 2013

  Actual Average (KSKX) Record (KSKX)
Temperature  
Mean Temperature 32 °F -  
Max Temperature 49 °F 47 °F 64 °F (2007)
Min Temperature 16 °F 18 °F 6 °F (2000)
Degree Days  
Heating Degree Days 32    
Moisture  
Dew Point 19 °F    
Average Humidity 70    
Maximum Humidity 92    
Minimum Humidity 27    
Precipitation  
Precipitation 0.00 in - - ()
Sea Level Pressure  
Sea Level Pressure 30.26 in    
Wind  
Wind Speed 1 mph (SW)    
Max Wind Speed 9 mph    
Max Gust Speed 9 mph    
Visibility 10 miles    
Events      
Averages and records for this station are not official NWS values.
T = Trace of Precipitation, MM = Missing Value Source: NWS Daily Summary

Daily Weather History Graph

Daily Weather History Graph

Search for Another Location

Airport:

Trip Planner

Search our weather history database for the weather conditions in past years. The results will help you decide how hot, cold, wet, or windy it might be!

Date:

Astronomy

Nov. 18, 2013 Rise Set
Actual Time 6:41 AM MST 4:50 PM MST
Civil Twilight 6:14 AM MST 5:18 PM MST
Nautical Twilight 5:42 AM MST 5:49 PM MST
Astronomical Twilight 5:12 AM MST 6:20 PM MST
Moon 5:55 PM MST (11/18) 7:32 AM MST (11/18)
Length of Visible Light 11h 04m
Length of Day
10h 08m
Full, 99% of the Moon is Illuminated
Nov 18
Full
Nov 25
Last Quarter
Dec 2
New
Dec 9
First Quarter
Dec 17
Full

Hourly Weather History & Observations

Time (MST) Temp. Windchill Dew Point Humidity Pressure Visibility Wind Dir Wind Speed Gust Speed Precip Events Conditions
12:15 AM 22.3 °F - 19.8 °F 90% 30.27 in 10.0 mi Calm Calm - N/A   Clear
12:35 AM 20.5 °F - 18.0 °F 90% 30.26 in 10.0 mi Calm Calm - N/A   Clear
12:55 AM 20.5 °F - 18.1 °F 91% 30.26 in 10.0 mi Calm Calm - N/A   Clear
1:15 AM 19.9 °F - 17.6 °F 91% 30.26 in 10.0 mi Calm Calm - N/A   Clear
1:35 AM 20.1 °F - 18.0 °F 91% 30.27 in 10.0 mi Calm Calm - N/A   Clear
1:55 AM 18.5 °F - 16.0 °F 90% 30.26 in 10.0 mi Calm Calm - N/A   Clear
2:15 AM 19.0 °F - 16.5 °F 90% 30.26 in 10.0 mi Calm Calm - N/A   Clear
2:35 AM 18.0 °F - 15.8 °F 91% 30.27 in 10.0 mi Calm Calm - N/A   Clear
2:55 AM 18.3 °F - 16.0 °F 91% 30.27 in 10.0 mi Calm Calm - N/A   Clear
3:15 AM 20.8 °F - 18.9 °F 92% 30.27 in 10.0 mi Calm Calm - N/A   Clear
3:35 AM 19.8 °F - 17.8 °F 92% 30.27 in 10.0 mi Calm Calm - N/A   Clear
3:55 AM 18.1 °F - 15.8 °F 91% 30.27 in 10.0 mi Calm Calm - N/A   Clear
4:15 AM 17.2 °F - 15.1 °F 91% 30.28 in 10.0 mi Calm Calm - N/A   Clear
4:35 AM 17.8 °F - 15.3 °F 90% 30.28 in 10.0 mi Calm Calm - N/A   Clear
4:55 AM 16.0 °F - 13.8 °F 91% 30.28 in 10.0 mi Calm Calm - N/A   Clear
5:15 AM 16.9 °F - 14.7 °F 91% 30.28 in 10.0 mi Calm Calm - N/A   Clear
5:35 AM 16.9 °F 8.5 °F 14.9 °F 92% 30.28 in 10.0 mi SSE 5.8 mph - N/A   Clear
5:55 AM 18.7 °F - 16.7 °F 92% 30.27 in 10.0 mi Calm Calm - N/A   Clear
6:15 AM 19.9 °F 14.9 °F 17.6 °F 91% 30.28 in 10.0 mi NNE 3.5 mph - N/A   Clear
6:35 AM 19.2 °F 14.1 °F 17.1 °F 91% 30.29 in 10.0 mi NNE 3.5 mph - N/A   Clear
6:55 AM 19.6 °F 14.5 °F 17.4 °F 91% 30.29 in 10.0 mi NNE 3.5 mph - N/A   Clear
7:15 AM 19.9 °F - 18.0 °F 92% 30.31 in 10.0 mi Calm Calm - N/A   Clear
7:35 AM 21.2 °F - 19.2 °F 92% 30.31 in 10.0 mi Calm Calm - N/A   Clear
7:55 AM 22.1 °F - 19.6 °F 90% 30.30 in 10.0 mi Calm Calm - N/A   Clear
8:15 AM 24.8 °F - 22.1 °F 89% 30.30 in 10.0 mi Calm Calm - N/A   Clear
8:35 AM 27.1 °F - 23.9 °F 88% 30.31 in 10.0 mi Calm Calm - N/A   Clear
8:55 AM 29.5 °F - 24.6 °F 82% 30.31 in 10.0 mi Calm Calm - N/A   Clear
9:15 AM 32.4 °F - 25.7 °F 76% 30.31 in 10.0 mi Calm Calm - N/A   Clear
9:35 AM 35.2 °F 32.4 °F 27.1 °F 72% 30.31 in 10.0 mi South 3.5 mph - N/A   Clear
9:55 AM 40.3 °F - 22.8 °F 50% 30.31 in 10.0 mi Calm Calm - N/A   Clear
10:15 AM 41.9 °F - 21.6 °F 44% 30.31 in 10.0 mi Calm Calm - N/A   Clear
10:35 AM 43.7 °F - 22.1 °F 42% 30.31 in 10.0 mi Calm Calm - N/A   Clear
10:55 AM 44.1 °F - 23.0 °F 43% 30.31 in 10.0 mi Calm Calm - N/A   Clear
11:15 AM 45.3 °F 44.0 °F 19.6 °F 36% 30.29 in 10.0 mi WSW 3.5 mph - N/A   Clear
11:35 AM 47.7 °F - 16.3 °F 29% 30.28 in 10.0 mi WSW 9.2 mph - N/A   Clear
11:55 AM 49.1 °F - 16.0 °F 27% 30.27 in 10.0 mi WSW 9.2 mph - N/A   Clear
12:15 PM 46.9 °F - 17.1 °F 30% 30.26 in 10.0 mi WSW 8.1 mph - N/A   Clear
12:35 PM 45.3 °F 40.6 °F 18.0 °F 34% 30.26 in 10.0 mi SW 9.2 mph - N/A   Clear
12:55 PM 44.6 °F 43.1 °F 18.1 °F 35% 30.26 in 10.0 mi SSW 3.5 mph - N/A   Clear
1:15 PM 44.1 °F 40.1 °F 17.4 °F 34% 30.25 in 10.0 mi West 6.9 mph - N/A   Clear
1:35 PM 43.9 °F 42.3 °F 17.6 °F 35% 30.24 in 10.0 mi SW 3.5 mph - N/A   Clear
1:55 PM 44.1 °F - 16.0 °F 32% 30.24 in 10.0 mi Calm Calm - N/A   Clear
2:15 PM 43.2 °F 39.7 °F 15.8 °F 33% 30.24 in 10.0 mi West 5.8 mph 9.2 mph N/A   Clear
2:35 PM 42.8 °F - 16.2 °F 34% 30.24 in 10.0 mi Calm Calm - N/A   Clear
2:55 PM 42.4 °F 40.7 °F 18.9 °F 39% 30.24 in 10.0 mi WSW 3.5 mph - N/A   Clear
3:15 PM 43.0 °F 41.3 °F 15.6 °F 33% 30.23 in 10.0 mi ESE 3.5 mph - N/A   Clear
3:35 PM 42.1 °F 39.2 °F 18.9 °F 39% 30.23 in 10.0 mi West 4.6 mph - N/A   Clear
3:55 PM 41.0 °F 37.1 °F 18.0 °F 40% 30.23 in 10.0 mi WSW 5.8 mph - N/A   Clear
4:15 PM 40.5 °F 38.4 °F 17.4 °F 39% 30.23 in 10.0 mi WSW 3.5 mph - N/A   Clear
4:35 PM 39.9 °F 35.1 °F 18.3 °F 42% 30.23 in 10.0 mi SW 6.9 mph - N/A   Clear
4:55 PM 38.5 °F 34.1 °F 19.2 °F 46% 30.23 in 10.0 mi SSW 5.8 mph - N/A   Clear
5:15 PM 35.6 °F 31.7 °F 19.9 °F 53% 30.23 in 10.0 mi SW 4.6 mph - N/A   Clear
5:35 PM 31.3 °F - 20.5 °F 64% 30.24 in 10.0 mi Calm Calm - N/A   Clear
5:55 PM 29.7 °F - 20.3 °F 68% 30.24 in 10.0 mi Calm Calm - N/A   Clear
6:15 PM 29.3 °F - 19.4 °F 67% 30.24 in 10.0 mi Calm Calm - N/A   Clear
6:35 PM 29.7 °F 23.7 °F 19.4 °F 66% 30.24 in 10.0 mi South 5.8 mph - N/A   Clear
6:55 PM 27.1 °F - 19.8 °F 74% 30.25 in 10.0 mi Calm Calm - N/A   Clear
7:15 PM 26.1 °F - 19.2 °F 75% 30.24 in 10.0 mi Calm Calm - N/A   Clear
7:35 PM 24.8 °F - 18.7 °F 78% 30.24 in 10.0 mi Calm Calm - N/A   Clear
7:55 PM 24.1 °F - 18.3 °F 79% 30.24 in 10.0 mi Calm Calm - N/A   Clear
8:15 PM 26.4 °F 20.9 °F 19.8 °F 76% 30.24 in 10.0 mi NNE 4.6 mph - N/A   Clear
8:35 PM 25.7 °F 20.1 °F 20.1 °F 79% 30.24 in 10.0 mi NNE 4.6 mph - N/A   Clear
8:55 PM 24.3 °F - 19.6 °F 82% 30.24 in 10.0 mi Calm Calm - N/A   Clear
9:15 PM 24.8 °F - 19.8 °F 81% 30.24 in 10.0 mi Calm Calm - N/A   Clear
9:35 PM 24.1 °F - 18.9 °F 80% 30.24 in 10.0 mi Calm Calm - N/A   Clear
9:55 PM 21.7 °F - 17.8 °F 85% 30.24 in 10.0 mi Calm Calm - N/A   Clear
10:15 PM 21.9 °F 17.2 °F 18.1 °F 85% 30.24 in 10.0 mi NE 3.5 mph - N/A   Clear
10:35 PM 20.3 °F - 16.7 °F 86% 30.24 in 10.0 mi Calm Calm - N/A   Clear
10:55 PM 21.0 °F - 17.6 °F 87% 30.24 in 10.0 mi Calm Calm - N/A   Clear
11:15 PM 22.5 °F - 17.4 °F 81% 30.24 in 10.0 mi Calm Calm - N/A   Clear
11:35 PM 20.3 °F - 16.3 °F 85% 30.23 in 10.0 mi Calm Calm - N/A   Clear
11:55 PM 26.4 °F 22.4 °F 19.4 °F 75% 30.22 in 10.0 mi NNE 3.5 mph - N/A   Clear